createdAt,value
2024-01-10T00:00:01.769Z,4.900000
2024-01-10T00:01:01.086Z,4.900000
2024-01-10T00:02:01.088Z,4.900000
2024-01-10T00:03:01.023Z,4.000000
2024-01-10T00:04:01.157Z,4.000000
2024-01-10T00:05:01.617Z,0.000000
2024-01-10T00:06:01.148Z,0.000000
2024-01-10T00:07:01.055Z,0.000000
2024-01-10T00:08:01.191Z,4.900000
2024-01-10T00:09:01.092Z,4.900000
2024-01-10T00:10:01.982Z,4.900000
2024-01-10T00:11:01.122Z,4.900000
2024-01-10T00:12:01.201Z,4.900000
2024-01-10T00:13:01.102Z,8.000000
2024-01-10T00:14:01.430Z,8.000000
2024-01-10T00:15:01.564Z,8.000000
2024-01-10T00:16:01.208Z,8.000000
2024-01-10T00:17:01.189Z,8.000000
2024-01-10T00:18:01.349Z,7.700000
2024-01-10T00:19:01.243Z,7.700000
2024-01-10T00:20:02.053Z,7.700000
2024-01-10T00:21:01.179Z,7.700000
2024-01-10T00:22:00.315Z,7.600000
2024-01-10T00:23:00.281Z,7.600000
2024-01-10T00:24:00.331Z,7.600000
2024-01-10T00:25:00.636Z,7.600000
2024-01-10T00:26:00.347Z,7.600000
2024-01-10T00:27:00.257Z,7.600000
2024-01-10T00:28:00.342Z,5.200000
2024-01-10T00:29:02.248Z,5.200000
2024-01-10T00:30:01.311Z,5.100000
2024-01-10T00:31:00.356Z,5.100000
2024-01-10T00:32:00.364Z,5.100000
2024-01-10T00:33:00.505Z,5.100000
2024-01-10T00:34:00.397Z,5.100000
2024-01-10T00:35:02.632Z,4.800000
2024-01-10T00:36:00.370Z,4.800000
2024-01-10T00:37:00.320Z,4.800000
2024-01-10T00:38:00.463Z,8.200000
2024-01-10T00:39:00.314Z,8.200000
2024-01-10T00:40:01.267Z,8.200000
2024-01-10T00:41:00.407Z,8.200000
2024-01-10T00:42:00.444Z,7.300000
2024-01-10T00:43:00.346Z,7.300000
2024-01-10T00:44:00.497Z,7.300000
2024-01-10T00:45:30.777Z,7.900000
2024-01-10T00:46:00.464Z,7.900000
2024-01-10T00:47:00.425Z,7.900000
2024-01-10T00:48:00.610Z,10.100000
2024-01-10T00:49:00.456Z,10.100000
2024-01-10T00:50:31.869Z,11.200000
2024-01-10T00:51:00.426Z,11.200000
2024-01-10T00:52:00.533Z,11.200000
2024-01-10T00:53:00.438Z,10.100000
2024-01-10T00:54:00.528Z,10.100000
2024-01-10T00:55:30.848Z,7.500000
2024-01-10T00:56:00.682Z,7.500000
2024-01-10T00:57:00.489Z,7.500000
2024-01-10T00:58:00.610Z,7.500000
2024-01-10T00:59:00.573Z,7.500000
2024-01-10T01:00:31.310Z,7.500000
2024-01-10T01:01:00.569Z,7.500000
2024-01-10T01:02:00.644Z,7.500000
2024-01-10T01:03:00.553Z,10.200000
2024-01-10T01:04:00.612Z,10.200000
2024-01-10T01:05:31.147Z,10.200000
2024-01-10T01:06:00.774Z,10.200000
2024-01-10T01:07:00.601Z,10.200000
2024-01-10T01:08:00.719Z,7.200000
2024-01-10T01:09:00.598Z,7.200000
2024-01-10T01:10:25.217Z,7.200000
2024-01-10T01:11:00.637Z,7.200000
2024-01-10T01:12:04.057Z,7.200000
2024-01-10T01:13:00.624Z,7.200000
2024-01-10T01:14:00.749Z,4.000000
2024-01-10T01:15:30.993Z,6.400000
2024-01-10T01:16:00.764Z,6.400000
2024-01-10T01:17:00.719Z,6.400000
2024-01-10T01:18:00.785Z,6.400000
2024-01-10T01:19:00.735Z,6.400000
2024-01-10T01:21:01.528Z,4.000000
2024-01-10T01:22:00.797Z,4.000000
2024-01-10T01:23:00.758Z,4.700000
2024-01-10T01:24:00.795Z,4.700000
2024-01-10T01:25:31.079Z,4.700000
2024-01-10T01:26:00.811Z,4.700000
2024-01-10T01:27:00.799Z,4.700000
2024-01-10T01:28:00.802Z,6.800000
2024-01-10T01:29:00.885Z,6.800000
2024-01-10T01:30:31.593Z,4.600000
2024-01-10T01:31:00.856Z,4.600000
2024-01-10T01:32:00.972Z,4.600000
2024-01-10T01:33:00.954Z,4.600000
2024-01-10T01:34:01.009Z,0.000000
2024-01-10T01:35:31.155Z,0.000000
2024-01-10T01:36:00.904Z,0.000000
2024-01-10T01:37:00.838Z,0.000000
2024-01-10T01:38:00.891Z,0.000000
2024-01-10T01:39:00.886Z,0.000000
2024-01-10T01:40:31.593Z,0.000000
2024-01-10T01:41:00.867Z,0.000000
2024-01-10T01:42:00.970Z,0.000000
2024-01-10T01:43:00.865Z,5.100000
2024-01-10T01:44:00.969Z,5.100000
2024-01-10T01:45:32.026Z,0.000000
2024-01-10T01:46:00.980Z,0.000000
2024-01-10T01:47:00.963Z,0.000000
2024-01-10T01:48:01.227Z,0.000000
2024-01-10T01:49:01.126Z,0.000000
2024-01-10T01:50:31.688Z,0.000000
2024-01-10T01:51:00.968Z,0.000000
2024-01-10T01:52:01.017Z,0.000000
2024-01-10T01:53:00.981Z,0.000000
2024-01-10T01:54:01.070Z,0.000000
2024-01-10T01:55:31.409Z,0.000000
2024-01-10T01:56:01.088Z,5.200000
2024-01-10T01:57:01.023Z,5.200000
2024-01-10T01:58:01.081Z,5.200000
2024-01-10T01:59:01.139Z,4.500000
2024-01-10T02:00:32.105Z,4.000000
2024-01-10T02:01:01.070Z,4.000000
2024-01-10T02:02:01.171Z,4.000000
2024-01-10T02:03:01.226Z,4.000000
2024-01-10T02:04:01.239Z,0.000000
2024-01-10T02:05:31.537Z,0.000000
2024-01-10T02:06:01.320Z,0.000000
2024-01-10T02:07:01.095Z,5.100000
2024-01-10T02:08:01.267Z,5.100000
2024-01-10T02:09:01.148Z,0.000000
2024-01-10T02:10:11.794Z,0.000000
2024-01-10T02:11:01.238Z,0.000000
2024-01-10T02:12:01.246Z,0.000000
2024-01-10T02:13:01.218Z,0.000000
2024-01-10T02:14:01.368Z,6.600000
2024-01-10T02:15:31.553Z,6.600000
2024-01-10T02:16:00.234Z,6.600000
2024-01-10T02:17:00.239Z,8.300000
2024-01-10T02:18:00.556Z,8.300000
2024-01-10T02:19:00.325Z,8.300000
2024-01-10T02:20:01.215Z,8.300000
2024-01-10T02:21:00.267Z,8.300000
2024-01-10T02:22:00.300Z,5.300000
2024-01-10T02:23:00.363Z,5.300000
2024-01-10T02:24:00.370Z,5.800000
2024-01-10T02:25:10.636Z,5.800000
2024-01-10T02:26:00.448Z,5.800000
2024-01-10T02:27:00.321Z,4.700000
2024-01-10T02:28:00.397Z,4.700000
2024-01-10T02:29:00.340Z,4.700000
2024-01-10T02:30:01.262Z,4.900000
2024-01-10T02:31:00.510Z,4.900000
2024-01-10T02:32:00.583Z,5.300000
2024-01-10T02:33:00.579Z,5.300000
2024-01-10T02:34:00.481Z,5.300000
2024-01-10T02:35:00.842Z,0.000000
2024-01-10T02:36:00.498Z,0.000000
2024-01-10T02:37:00.414Z,0.000000
2024-01-10T02:38:00.532Z,0.000000
2024-01-10T02:39:00.445Z,0.000000
2024-01-10T02:40:31.863Z,0.000000
2024-01-10T02:41:00.508Z,0.000000
2024-01-10T02:42:00.489Z,0.000000
2024-01-10T02:43:00.482Z,0.000000
2024-01-10T02:44:00.872Z,0.000000
2024-01-10T02:45:00.926Z,8.000000
2024-01-10T02:46:00.559Z,8.000000
2024-01-10T02:47:00.558Z,8.000000
2024-01-10T02:48:00.719Z,8.000000
2024-01-10T02:49:00.661Z,8.000000
2024-01-10T02:50:01.438Z,5.900000
2024-01-10T02:51:00.562Z,5.900000
2024-01-10T02:52:00.661Z,5.900000
2024-01-10T02:53:00.575Z,4.900000
2024-01-10T02:54:00.676Z,4.900000
2024-01-10T02:55:01.481Z,0.000000
2024-01-10T02:56:00.714Z,0.000000
2024-01-10T02:57:00.622Z,4.000000
2024-01-10T02:58:00.657Z,4.000000
2024-01-10T02:59:00.671Z,0.000000
2024-01-10T03:00:01.650Z,0.000000
2024-01-10T03:01:00.737Z,0.000000
2024-01-10T03:02:00.789Z,0.000000
2024-01-10T03:03:00.692Z,0.000000
2024-01-10T03:04:00.820Z,0.000000
2024-01-10T03:05:01.118Z,0.000000
2024-01-10T03:06:00.791Z,0.000000
2024-01-10T03:07:00.726Z,0.000000
2024-01-10T03:08:00.796Z,0.000000
2024-01-10T03:09:00.755Z,0.000000
2024-01-10T03:10:01.619Z,0.000000
2024-01-10T03:11:00.795Z,0.000000
2024-01-10T03:12:00.881Z,0.000000
2024-01-10T03:13:00.792Z,0.000000
2024-01-10T03:14:00.868Z,0.000000
2024-01-10T03:15:01.683Z,0.000000
2024-01-10T03:16:00.875Z,0.000000
2024-01-10T03:17:00.886Z,0.000000
2024-01-10T03:18:00.935Z,0.000000
2024-01-10T03:19:00.938Z,0.000000
2024-01-10T03:20:01.778Z,0.000000
2024-01-10T03:21:00.865Z,0.000000
2024-01-10T03:22:00.884Z,0.000000
2024-01-10T03:23:00.890Z,0.000000
2024-01-10T03:24:00.934Z,0.000000
2024-01-10T03:25:01.478Z,0.000000
2024-01-10T03:26:01.007Z,0.000000
2024-01-10T03:27:00.900Z,0.000000
2024-01-10T03:28:00.956Z,0.000000
2024-01-10T03:29:00.900Z,0.000000
2024-01-10T03:30:04.096Z,0.000000
2024-01-10T03:31:00.967Z,0.000000
2024-01-10T03:32:01.022Z,0.000000
2024-01-10T03:33:00.985Z,0.000000
2024-01-10T03:34:01.084Z,0.000000
2024-01-10T03:35:01.903Z,0.000000
2024-01-10T03:36:01.059Z,0.000000
2024-01-10T03:37:00.990Z,0.000000
2024-01-10T03:38:01.099Z,0.000000
2024-01-10T03:39:01.014Z,0.000000
2024-01-10T03:40:02.098Z,0.000000
2024-01-10T03:41:01.042Z,0.000000
2024-01-10T03:42:01.126Z,0.000000
2024-01-10T03:43:01.017Z,0.000000
2024-01-10T03:44:01.233Z,0.000000
2024-01-10T03:45:01.477Z,0.000000
2024-01-10T03:46:01.357Z,0.000000
2024-01-10T03:47:01.158Z,0.000000
2024-01-10T03:48:01.303Z,0.000000
2024-01-10T03:49:01.099Z,0.000000
2024-01-10T03:50:02.199Z,0.000000
2024-01-10T03:51:01.125Z,0.000000
2024-01-10T03:52:01.528Z,0.000000
2024-01-10T03:53:01.178Z,0.000000
2024-01-10T03:54:01.507Z,0.000000
2024-01-10T03:55:01.502Z,0.000000
2024-01-10T03:56:01.797Z,0.000000
2024-01-10T03:57:01.169Z,0.000000
2024-01-10T03:58:01.740Z,0.000000
2024-01-10T03:59:01.190Z,0.000000
2024-01-10T04:00:02.297Z,0.000000
2024-01-10T04:01:00.259Z,0.000000
2024-01-10T04:02:00.370Z,0.000000
2024-01-10T04:03:00.275Z,0.000000
2024-01-10T04:04:00.326Z,0.000000
2024-01-10T04:05:00.830Z,0.000000
2024-01-10T04:06:00.410Z,0.000000
2024-01-10T04:07:00.252Z,0.000000
2024-01-10T04:08:00.401Z,0.000000
2024-01-10T04:09:00.257Z,0.000000
2024-01-10T04:10:01.218Z,0.000000
2024-01-10T04:11:00.321Z,0.000000
2024-01-10T04:12:00.470Z,0.000000
2024-01-10T04:13:00.308Z,0.000000
2024-01-10T04:14:00.517Z,0.000000
2024-01-10T04:15:00.740Z,0.000000
2024-01-10T04:16:00.440Z,0.000000
2024-01-10T04:17:00.354Z,0.000000
2024-01-10T04:18:00.549Z,0.000000
2024-01-10T04:19:00.493Z,0.000000
2024-01-10T04:20:01.324Z,0.000000
2024-01-10T04:21:00.473Z,0.000000
2024-01-10T04:22:00.437Z,0.000000
2024-01-10T04:23:00.522Z,0.000000
2024-01-10T04:24:00.517Z,0.000000
2024-01-10T04:25:00.918Z,0.000000
2024-01-10T04:26:00.545Z,0.000000
2024-01-10T04:27:00.441Z,0.000000
2024-01-10T04:28:00.507Z,0.000000
2024-01-10T04:29:00.481Z,0.000000
2024-01-10T04:30:04.152Z,0.000000
2024-01-10T04:31:00.559Z,0.000000
2024-01-10T04:32:00.563Z,0.000000
2024-01-10T04:33:00.558Z,0.000000
2024-01-10T04:34:00.665Z,0.000000
2024-01-10T04:35:01.001Z,0.000000
2024-01-10T04:36:00.609Z,0.000000
2024-01-10T04:37:00.544Z,0.000000
2024-01-10T04:38:00.649Z,0.000000
2024-01-10T04:39:00.533Z,0.000000
2024-01-10T04:40:01.514Z,0.000000
2024-01-10T04:41:00.651Z,0.000000
2024-01-10T04:42:00.798Z,0.000000
2024-01-10T04:43:00.562Z,0.000000
2024-01-10T04:44:00.696Z,0.000000
2024-01-10T04:45:00.983Z,0.000000
2024-01-10T04:46:00.675Z,0.000000
2024-01-10T04:47:00.685Z,0.000000
2024-01-10T04:48:00.952Z,0.000000
2024-01-10T04:49:00.722Z,0.000000
2024-01-10T04:50:01.664Z,0.000000
2024-01-10T04:51:00.681Z,0.000000
2024-01-10T04:52:00.759Z,0.000000
2024-01-10T04:53:00.733Z,0.000000
2024-01-10T04:54:00.786Z,0.000000
2024-01-10T04:55:01.094Z,0.000000
2024-01-10T04:56:00.818Z,4.300000
2024-01-10T04:57:00.730Z,4.300000
2024-01-10T04:58:00.784Z,4.300000
2024-01-10T04:59:00.761Z,4.300000
2024-01-10T05:00:04.902Z,4.300000
2024-01-10T05:01:00.783Z,0.000000
2024-01-10T05:02:00.862Z,0.000000
2024-01-10T05:03:00.793Z,0.000000
2024-01-10T05:04:00.827Z,0.000000
2024-01-10T05:05:01.417Z,0.000000
2024-01-10T05:06:01.047Z,0.000000
2024-01-10T05:07:00.787Z,0.000000
2024-01-10T05:08:00.872Z,7.900000
2024-01-10T05:09:00.814Z,7.900000
2024-01-10T05:10:01.659Z,7.900000
2024-01-10T05:11:00.867Z,7.900000
2024-01-10T05:12:00.960Z,7.900000
2024-01-10T05:13:00.852Z,0.000000
2024-01-10T05:14:00.955Z,0.000000
2024-01-10T05:15:01.355Z,0.000000
2024-01-10T05:16:00.983Z,0.000000
2024-01-10T05:17:00.980Z,0.000000
2024-01-10T05:18:01.077Z,0.000000
2024-01-10T05:19:01.045Z,0.000000
2024-01-10T05:20:01.986Z,4.000000
2024-01-10T05:21:00.943Z,4.000000
2024-01-10T05:22:03.344Z,4.000000
2024-01-10T05:23:00.992Z,0.000000
2024-01-10T05:24:01.065Z,0.000000
2024-01-10T05:25:02.060Z,0.000000
2024-01-10T05:26:01.101Z,0.000000
2024-01-10T05:27:00.994Z,0.000000
2024-01-10T05:28:01.095Z,0.000000
2024-01-10T05:29:01.060Z,0.000000
2024-01-10T05:30:01.807Z,0.000000
2024-01-10T05:31:01.091Z,0.000000
2024-01-10T05:32:01.225Z,0.000000
2024-01-10T05:33:01.113Z,0.000000
2024-01-10T05:34:01.188Z,5.200000
2024-01-10T05:35:01.715Z,5.200000
2024-01-10T05:36:01.189Z,5.200000
2024-01-10T05:37:01.116Z,4.000000
2024-01-10T05:38:01.277Z,4.000000
2024-01-10T05:39:01.092Z,0.000000
2024-01-10T05:40:02.341Z,0.000000
2024-01-10T05:41:01.155Z,0.000000
2024-01-10T05:42:01.238Z,0.000000
2024-01-10T05:43:01.138Z,0.000000
2024-01-10T05:44:01.331Z,0.000000
2024-01-10T05:45:01.621Z,0.000000
2024-01-10T05:46:01.304Z,0.000000
2024-01-10T05:47:01.260Z,0.000000
2024-01-10T05:48:01.345Z,0.000000
2024-01-10T05:49:01.418Z,0.000000
2024-01-10T05:50:01.486Z,0.000000
2024-01-10T05:51:00.274Z,0.000000
2024-01-10T05:52:00.281Z,0.000000
2024-01-10T05:53:00.247Z,0.000000
2024-01-10T05:54:00.684Z,4.500000
2024-01-10T05:55:00.767Z,4.500000
2024-01-10T05:56:00.382Z,4.500000
2024-01-10T05:57:00.307Z,4.500000
2024-01-10T05:58:00.335Z,4.500000
2024-01-10T05:59:00.347Z,0.000000
2024-01-10T06:00:01.543Z,0.000000
2024-01-10T06:01:00.379Z,0.000000
2024-01-10T06:02:00.716Z,5.100000
2024-01-10T06:03:00.428Z,5.100000
2024-01-10T06:04:00.455Z,7.000000
2024-01-10T06:05:03.435Z,7.000000
2024-01-10T06:06:00.538Z,7.000000
2024-01-10T06:07:00.381Z,7.000000
2024-01-10T06:08:00.505Z,7.000000
2024-01-10T06:09:00.384Z,5.900000
2024-01-10T06:10:01.441Z,5.900000
2024-01-10T06:11:00.484Z,5.900000
2024-01-10T06:12:00.668Z,0.000000
2024-01-10T06:13:00.449Z,0.000000
2024-01-10T06:14:00.544Z,0.000000
2024-01-10T06:15:00.909Z,0.000000
2024-01-10T06:16:00.651Z,0.000000
2024-01-10T06:17:00.492Z,0.000000
2024-01-10T06:18:00.677Z,0.000000
2024-01-10T06:19:00.654Z,0.000000
2024-01-10T06:20:02.377Z,0.000000
2024-01-10T06:21:00.508Z,0.000000
2024-01-10T06:22:00.582Z,4.200000
2024-01-10T06:23:00.665Z,4.200000
2024-01-10T06:24:00.680Z,4.200000
2024-01-10T06:25:00.898Z,4.200000
2024-01-10T06:26:00.591Z,4.200000
2024-01-10T06:27:00.567Z,0.000000
2024-01-10T06:28:00.622Z,0.000000
2024-01-10T06:29:00.649Z,0.000000
2024-01-10T06:30:01.695Z,0.000000
2024-01-10T06:31:00.668Z,0.000000
2024-01-10T06:32:00.720Z,0.000000
2024-01-10T06:33:00.760Z,0.000000
2024-01-10T06:34:00.728Z,0.000000
2024-01-10T06:35:01.134Z,0.000000
2024-01-10T06:36:00.707Z,0.000000
2024-01-10T06:37:00.610Z,0.000000
2024-01-10T06:38:00.792Z,0.000000
2024-01-10T06:39:00.920Z,5.300000
2024-01-10T06:40:01.713Z,5.300000
2024-01-10T06:41:00.745Z,5.300000
2024-01-10T06:42:00.790Z,4.900000
2024-01-10T06:43:00.696Z,4.900000
2024-01-10T06:44:00.807Z,4.900000
2024-01-10T06:45:01.963Z,4.900000
2024-01-10T06:46:00.746Z,4.900000
2024-01-10T06:47:00.768Z,4.500000
2024-01-10T06:48:00.878Z,4.500000
2024-01-10T06:49:00.843Z,0.000000
2024-01-10T06:50:03.499Z,0.000000
2024-01-10T06:51:00.739Z,0.000000
2024-01-10T06:52:00.835Z,0.000000
2024-01-10T06:53:00.848Z,0.000000
2024-01-10T06:54:00.859Z,0.000000
2024-01-10T06:55:01.271Z,0.000000
2024-01-10T06:56:00.872Z,0.000000
2024-01-10T06:57:00.808Z,0.000000
2024-01-10T06:58:00.895Z,0.000000
2024-01-10T06:59:00.829Z,0.000000
2024-01-10T07:00:01.928Z,0.000000
2024-01-10T07:01:00.919Z,0.000000
2024-01-10T07:02:01.028Z,0.000000
2024-01-10T07:03:00.872Z,0.000000
2024-01-10T07:04:02.212Z,0.000000
2024-01-10T07:05:01.364Z,5.700000
2024-01-10T07:06:17.105Z,5.700000
2024-01-10T07:07:00.884Z,5.700000
2024-01-10T07:08:08.826Z,6.400000
2024-01-10T07:09:00.934Z,6.400000
2024-01-10T07:10:03.166Z,6.400000
2024-01-10T07:11:01.004Z,6.400000
2024-01-10T07:12:01.476Z,6.000000
2024-01-10T07:13:00.975Z,6.000000
2024-01-10T07:14:02.170Z,6.000000
2024-01-10T07:15:02.286Z,5.900000
2024-01-10T07:16:02.256Z,5.900000
2024-01-10T07:17:01.047Z,5.900000
2024-01-10T07:18:04.421Z,6.700000
2024-01-10T07:19:01.173Z,6.700000
2024-01-10T07:20:02.961Z,6.700000
2024-01-10T07:21:01.063Z,6.600000
2024-01-10T07:22:01.400Z,6.600000
2024-01-10T07:23:01.093Z,7.500000
2024-01-10T07:24:01.442Z,7.500000
2024-01-10T07:25:01.721Z,7.500000
2024-01-10T07:26:02.038Z,7.500000
2024-01-10T07:27:01.068Z,7.500000
2024-01-10T07:28:02.081Z,7.600000
2024-01-10T07:29:01.141Z,7.600000
2024-01-10T07:30:02.396Z,7.600000
2024-01-10T07:31:01.195Z,7.600000
2024-01-10T07:32:01.282Z,7.600000
2024-01-10T07:33:01.329Z,8.500000
2024-01-10T07:34:01.686Z,8.500000
2024-01-10T07:35:02.035Z,8.500000
2024-01-10T07:36:19.450Z,8.500000
2024-01-10T07:37:01.174Z,8.500000
2024-01-10T07:38:01.294Z,8.500000
2024-01-10T07:39:04.008Z,8.500000
2024-01-10T07:40:02.087Z,8.500000
2024-01-10T07:41:00.300Z,5.900000
2024-01-10T07:42:00.788Z,5.900000
2024-01-10T07:43:00.217Z,6.600000
2024-01-10T07:44:00.368Z,6.600000
2024-01-10T07:45:00.839Z,6.600000
2024-01-10T07:46:00.270Z,7.300000
2024-01-10T07:47:00.266Z,7.300000
2024-01-10T07:48:00.543Z,7.300000
2024-01-10T07:49:00.324Z,7.300000
2024-01-10T07:50:01.205Z,7.300000
2024-01-10T07:51:00.462Z,8.200000
2024-01-10T07:52:00.393Z,8.200000
2024-01-10T07:53:00.388Z,8.200000
2024-01-10T07:54:00.545Z,8.200000
2024-01-10T07:55:00.752Z,8.200000
2024-01-10T07:56:00.721Z,7.400000
2024-01-10T07:57:00.413Z,7.400000
2024-01-10T07:58:00.414Z,7.900000
2024-01-10T07:59:00.450Z,7.900000
2024-01-10T08:00:01.363Z,7.900000
2024-01-10T08:01:00.400Z,7.900000
2024-01-10T08:02:00.546Z,7.900000
2024-01-10T08:03:00.502Z,7.500000
2024-01-10T08:04:00.532Z,7.500000
2024-01-10T08:05:00.980Z,7.500000
2024-01-10T08:06:00.580Z,7.500000
2024-01-10T08:07:00.489Z,7.500000
2024-01-10T08:08:00.663Z,6.900000
2024-01-10T08:09:00.496Z,6.900000
2024-01-10T08:10:03.768Z,7.800000
2024-01-10T08:11:00.588Z,7.800000
2024-01-10T08:12:00.580Z,7.800000
2024-01-10T08:13:00.522Z,10.100000
2024-01-10T08:14:00.614Z,10.100000
2024-01-10T08:15:01.635Z,10.100000
2024-01-10T08:16:00.621Z,11.800000
2024-01-10T08:17:00.615Z,11.800000
2024-01-10T08:18:00.720Z,7.000000
2024-01-10T08:19:00.813Z,7.000000
2024-01-10T08:20:01.764Z,6.700000
2024-01-10T08:21:00.587Z,6.700000
2024-01-10T08:22:00.640Z,6.700000
2024-01-10T08:23:00.613Z,6.700000
2024-01-10T08:24:00.791Z,6.700000
2024-01-10T08:25:01.098Z,6.700000
2024-01-10T08:26:00.898Z,5.800000
2024-01-10T08:27:00.616Z,5.800000
2024-01-10T08:28:00.737Z,5.800000
2024-01-10T08:29:00.720Z,5.800000
2024-01-10T08:30:01.921Z,5.800000
2024-01-10T08:31:04.658Z,5.800000
2024-01-10T08:32:00.852Z,5.800000
2024-01-10T08:33:21.483Z,11.200000
2024-01-10T08:34:00.948Z,11.200000
2024-01-10T08:35:01.572Z,11.200000
2024-01-10T08:36:00.933Z,7.700000
2024-01-10T08:37:00.722Z,7.700000
2024-01-10T08:38:00.862Z,7.700000
2024-01-10T08:39:00.776Z,6.300000
2024-01-10T08:40:01.834Z,6.300000
2024-01-10T08:41:00.859Z,8.600000
2024-01-10T08:42:00.909Z,8.600000
2024-01-10T08:43:00.776Z,10.700000
2024-01-10T08:44:00.920Z,10.700000
2024-01-10T08:45:01.262Z,10.700000
2024-01-10T08:46:00.903Z,10.700000
2024-01-10T08:47:00.883Z,10.700000
2024-01-10T08:48:01.053Z,10.700000
2024-01-10T08:49:01.056Z,10.700000
2024-01-10T08:50:01.851Z,10.700000
2024-01-10T08:51:00.905Z,8.900000
2024-01-10T08:52:00.934Z,8.900000
2024-01-10T08:53:00.912Z,8.400000
2024-01-10T08:54:00.999Z,8.400000
2024-01-10T08:55:01.320Z,8.400000
2024-01-10T08:56:01.023Z,7.900000
2024-01-10T08:57:00.915Z,7.900000
2024-01-10T08:58:01.032Z,7.900000
2024-01-10T08:59:02.409Z,7.900000
2024-01-10T09:00:01.923Z,7.900000
2024-01-10T09:01:01.025Z,7.900000
2024-01-10T09:02:01.070Z,6.800000
2024-01-10T09:03:00.996Z,6.800000
2024-01-10T09:04:01.209Z,11.900000
2024-01-10T09:05:02.720Z,11.900000
2024-01-10T09:06:07.779Z,11.900000
2024-01-10T09:07:01.069Z,11.900000
2024-01-10T09:08:01.167Z,11.900000
2024-01-10T09:09:01.037Z,12.200000
2024-01-10T09:10:01.902Z,12.200000
2024-01-10T09:11:01.146Z,12.200000
2024-01-10T09:12:01.176Z,9.600000
2024-01-10T09:13:01.079Z,9.600000
2024-01-10T09:14:01.210Z,12.900000
2024-01-10T09:15:03.414Z,12.900000
2024-01-10T09:16:01.203Z,9.500000
2024-01-10T09:17:01.169Z,9.500000
2024-01-10T09:18:01.312Z,9.500000
2024-01-10T09:19:01.238Z,12.200000
2024-01-10T09:20:02.118Z,12.200000
2024-01-10T09:21:01.180Z,12.200000
2024-01-10T09:22:01.240Z,9.900000
2024-01-10T09:23:01.193Z,9.900000
2024-01-10T09:24:10.621Z,9.900000
2024-01-10T09:25:17.482Z,9.900000
2024-01-10T09:26:01.319Z,9.900000
2024-01-10T09:27:01.247Z,8.700000
2024-01-10T09:28:00.277Z,8.700000
2024-01-10T09:29:00.228Z,10.600000
2024-01-10T09:30:03.672Z,10.600000
2024-01-10T09:31:00.275Z,11.400000
2024-01-10T09:32:00.398Z,11.400000
2024-01-10T09:33:00.522Z,11.400000
2024-01-10T09:34:00.577Z,10.600000
2024-01-10T09:35:10.967Z,10.600000
2024-01-10T09:36:01.759Z,14.700000
2024-01-10T09:37:00.282Z,14.700000
2024-01-10T09:38:00.349Z,14.700000
2024-01-10T09:39:00.280Z,10.400000
2024-01-10T09:40:30.941Z,10.400000
2024-01-10T09:41:00.377Z,12.100000
2024-01-10T09:42:00.406Z,12.100000
2024-01-10T09:43:00.317Z,12.100000
2024-01-10T09:44:00.405Z,14.000000
2024-01-10T09:45:01.121Z,14.000000
2024-01-10T09:46:00.480Z,14.000000
2024-01-10T09:47:00.455Z,14.000000
2024-01-10T09:48:00.650Z,14.000000
2024-01-10T09:49:02.553Z,12.200000
2024-01-10T09:50:03.173Z,12.200000
2024-01-10T09:51:00.406Z,12.200000
2024-01-10T09:52:00.562Z,12.200000
2024-01-10T09:53:00.445Z,12.200000
2024-01-10T09:54:00.710Z,12.200000
2024-01-10T09:55:01.191Z,10.600000
2024-01-10T09:56:00.561Z,10.600000
2024-01-10T09:57:00.463Z,12.000000
2024-01-10T09:58:00.734Z,12.000000
2024-01-10T09:59:00.545Z,12.000000
2024-01-10T10:00:30.183Z,11.600000
2024-01-10T10:01:00.722Z,11.600000
2024-01-10T10:02:00.870Z,11.600000
2024-01-10T10:03:00.590Z,11.600000
2024-01-10T10:04:00.642Z,11.600000
2024-01-10T10:05:00.996Z,11.900000
2024-01-10T10:06:00.720Z,11.900000
2024-01-10T10:07:00.671Z,10.300000
2024-01-10T10:08:00.735Z,10.300000
2024-01-10T10:09:00.588Z,10.300000
2024-01-10T10:10:01.306Z,10.200000
2024-01-10T10:11:00.764Z,10.200000
2024-01-10T10:12:00.741Z,10.100000
2024-01-10T10:13:00.639Z,10.100000
2024-01-10T10:14:00.741Z,10.100000
2024-01-10T10:15:03.492Z,14.900000
2024-01-10T10:16:00.729Z,14.900000
2024-01-10T10:17:00.737Z,14.900000
2024-01-10T10:18:00.878Z,14.900000
2024-01-10T10:19:00.749Z,14.900000
2024-01-10T10:20:01.445Z,11.700000
2024-01-10T10:21:00.764Z,11.700000
2024-01-10T10:22:00.815Z,11.700000
2024-01-10T10:23:00.877Z,13.400000
2024-01-10T10:24:00.834Z,13.400000
2024-01-10T10:25:01.107Z,11.400000
2024-01-10T10:26:00.836Z,11.400000
2024-01-10T10:27:00.822Z,11.400000
2024-01-10T10:28:00.858Z,11.300000
2024-01-10T10:29:00.844Z,11.300000
2024-01-10T10:30:01.886Z,10.400000
2024-01-10T10:31:00.923Z,10.400000
2024-01-10T10:32:00.906Z,10.400000
2024-01-10T10:33:00.997Z,12.400000
2024-01-10T10:34:01.066Z,12.400000
2024-01-10T10:35:01.194Z,12.400000
2024-01-10T10:36:01.069Z,12.400000
2024-01-10T10:37:00.929Z,12.400000
2024-01-10T10:38:01.034Z,12.400000
2024-01-10T10:39:00.912Z,12.400000
2024-01-10T10:40:01.881Z,12.400000
2024-01-10T10:41:00.946Z,10.300000
2024-01-10T10:42:00.997Z,10.300000
2024-01-10T10:43:00.924Z,10.300000
2024-01-10T10:44:01.033Z,10.300000
2024-01-10T10:45:01.546Z,11.800000
2024-01-10T10:46:01.051Z,11.800000
2024-01-10T10:47:09.287Z,10.700000
2024-01-10T10:48:01.215Z,10.700000
2024-01-10T10:49:01.053Z,10.700000
2024-01-10T10:50:02.379Z,10.900000
2024-01-10T10:51:01.024Z,10.900000
2024-01-10T10:52:01.072Z,10.900000
2024-01-10T10:53:01.052Z,11.700000
2024-01-10T10:54:01.137Z,11.700000
2024-01-10T10:55:02.437Z,11.100000
2024-01-10T10:56:01.229Z,11.100000
2024-01-10T10:57:01.105Z,10.300000
2024-01-10T10:58:05.143Z,10.300000
2024-01-10T10:59:01.132Z,10.300000
2024-01-10T11:00:02.081Z,9.100000
2024-01-10T11:01:01.164Z,9.100000
2024-01-10T11:02:01.308Z,9.100000
2024-01-10T11:03:01.141Z,10.100000
2024-01-10T11:04:01.353Z,10.100000
2024-01-10T11:05:01.844Z,10.100000
2024-01-10T11:06:01.525Z,11.600000
2024-01-10T11:07:01.300Z,11.600000
2024-01-10T11:08:01.354Z,11.400000
2024-01-10T11:09:01.203Z,11.400000
2024-01-10T11:10:02.377Z,11.400000
2024-01-10T11:11:00.270Z,11.400000
2024-01-10T11:12:00.797Z,11.400000
2024-01-10T11:13:00.224Z,12.300000
2024-01-10T11:14:00.409Z,12.300000
2024-01-10T11:15:00.817Z,12.300000
2024-01-10T11:16:00.318Z,12.300000
2024-01-10T11:17:00.304Z,12.300000
2024-01-10T11:18:00.436Z,10.800000
2024-01-10T11:19:00.346Z,10.800000
2024-01-10T11:20:01.283Z,10.300000
2024-01-10T11:21:00.332Z,10.300000
2024-01-10T11:22:00.408Z,10.300000
2024-01-10T11:23:00.355Z,12.000000
2024-01-10T11:24:00.370Z,12.000000
2024-01-10T11:25:02.916Z,10.700000
2024-01-10T11:26:00.761Z,10.700000
2024-01-10T11:27:00.336Z,10.700000
2024-01-10T11:28:03.870Z,10.700000
2024-01-10T11:29:00.377Z,10.700000
2024-01-10T11:30:01.370Z,9.200000
2024-01-10T11:31:00.501Z,9.200000
2024-01-10T11:32:01.823Z,9.200000
2024-01-10T11:33:00.467Z,9.200000
2024-01-10T11:34:00.561Z,9.200000
2024-01-10T11:35:00.946Z,9.200000
2024-01-10T11:36:02.185Z,8.000000
2024-01-10T11:37:00.409Z,8.000000
2024-01-10T11:38:00.582Z,8.600000
2024-01-10T11:39:00.441Z,8.600000
2024-01-10T11:40:01.393Z,8.600000